Time;durP1;ratioP1;P1;durP2;ratioP2;P2;SDS_P1;SDS_P2;PMS_P1;PMS_P2;Temp;Humidity;BMP_temperature;BMP_pressure;BME280_temperature;BME280_humidity;BME280_pressure;Samples;Min_cycle;Max_cycle;Signal;HPM_P1;HPM_P2
2021/10/23 00:03:23;;;;;;;21.13;14.63;;;;;9.50;101993.00;;;;10283192;28;20220;-77
2021/10/23 00:08:25;;;;;;;20.93;14.23;;;;;9.50;102000.00;;;;10298569;28;20258;-78
2021/10/23 00:13:27;;;;;;;20.67;13.07;;;;;9.40;101993.00;;;;10287000;28;20188;-78
2021/10/23 00:18:29;;;;;;;18.17;14.13;;;;;9.40;102002.00;;;;10290398;28;20200;-78
2021/10/23 00:23:31;;;;;;;25.20;14.03;;;;;9.40;102006.00;;;;10305765;28;20271;-77
2021/10/23 00:28:34;;;;;;;22.20;13.80;;;;;9.40;102009.00;;;;10289548;28;20250;-77
2021/10/23 00:33:37;;;;;;;21.20;13.57;;;;;9.40;102006.00;;;;10289699;28;20291;-77
2021/10/23 00:38:39;;;;;;;19.93;12.73;;;;;9.30;102023.00;;;;10289291;28;20193;-78
2021/10/23 00:43:44;;;;;;;23.07;13.00;;;;;9.30;102025.00;;;;10289138;28;20631;-78
2021/10/23 00:48:46;;;;;;;16.30;12.67;;;;;9.30;102031.00;;;;10304511;28;20192;-78
2021/10/23 00:53:48;;;;;;;21.53;12.70;;;;;9.30;102033.00;;;;10304762;28;20196;-78
2021/10/23 00:58:50;;;;;;;22.83;13.33;;;;;9.30;102046.00;;;;10304899;28;20688;-78
2021/10/23 01:03:52;;;;;;;14.20;11.63;;;;;9.30;102040.00;;;;10288068;28;20297;-78
2021/10/23 01:08:54;;;;;;;20.97;12.57;;;;;9.30;102034.00;;;;10278604;28;20212;-77
2021/10/23 01:13:56;;;;;;;24.50;13.20;;;;;9.30;102033.00;;;;10320167;28;20189;-77
2021/10/23 01:18:58;;;;;;;22.10;15.00;;;;;9.20;102037.00;;;;10303963;28;20263;-78
2021/10/23 01:24:00;;;;;;;24.57;15.90;;;;;9.20;102029.00;;;;10302409;28;20208;-78
2021/10/23 01:29:04;;;;;;;28.53;18.53;;;;;9.10;102030.00;;;;10271513;28;20246;-78
2021/10/23 01:34:19;;;;;;;30.23;19.37;;;;;9.00;102034.00;;;;10302755;28;20200;-77
2021/10/23 01:39:22;;;;;;;25.87;19.10;;;;;8.80;102027.00;;;;10302530;28;20207;-78
2021/10/23 01:44:28;;;;;;;25.60;17.77;;;;;8.70;102019.00;;;;10286640;28;20294;-78
2021/10/23 01:49:30;;;;;;;27.17;18.93;;;;;8.50;102032.00;;;;10302312;28;20247;-77
2021/10/23 01:54:32;;;;;;;29.90;17.90;;;;;8.40;102032.00;;;;10302020;28;20689;-78
2021/10/23 01:59:34;;;;;;;24.67;17.33;;;;;8.20;102023.00;;;;10301863;28;20207;-77
2021/10/23 02:04:36;;;;;;;25.13;17.90;;;;;8.00;102025.00;;;;10301433;28;20706;-77
2021/10/23 02:09:38;;;;;;;27.07;18.20;;;;;7.90;102019.00;;;;10269829;28;20200;-78
2021/10/23 02:14:39;;;;;;;30.40;19.87;;;;;7.90;102011.00;;;;10301585;28;20192;-77
2021/10/23 02:19:41;;;;;;;32.27;20.80;;;;;7.80;102013.00;;;;10285576;28;20758;-78
2021/10/23 02:24:43;;;;;;;33.60;20.30;;;;;7.70;102009.00;;;;10301134;28;20193;-77
2021/10/23 02:29:45;;;;;;;29.53;21.17;;;;;7.60;102007.00;;;;10284948;28;20204;-78
2021/10/23 02:34:47;;;;;;;35.57;20.93;;;;;7.60;102011.00;;;;10300798;28;20200;-77
2021/10/23 02:39:49;;;;;;;29.17;20.27;;;;;7.60;102007.00;;;;10284489;28;20216;-78
2021/10/23 02:44:51;;;;;;;34.70;21.10;;;;;7.70;101995.00;;;;10284641;28;20200;-78
2021/10/23 02:49:53;;;;;;;40.73;21.97;;;;;7.80;102008.00;;;;10268570;28;20206;-77
2021/10/23 02:54:56;;;;;;;37.20;23.37;;;;;7.90;101999.00;;;;10299929;28;20244;-78
2021/10/23 02:59:58;;;;;;;42.67;22.83;;;;;7.80;101998.00;;;;10315951;28;20212;-78
2021/10/23 03:05:03;;;;;;;36.20;21.53;;;;;7.70;101999.00;;;;10300612;28;20871;-78
2021/10/23 03:10:06;;;;;;;34.73;21.47;;;;;7.60;102000.00;;;;10324474;28;20203;-78
2021/10/23 03:15:08;;;;;;;33.37;19.87;;;;;7.50;102005.00;;;;10324171;28;20192;-77
2021/10/23 03:20:11;;;;;;;33.97;21.30;;;;;7.40;102001.00;;;;10306065;28;20718;-77
2021/10/23 03:25:13;;;;;;;36.60;20.90;;;;;7.30;102003.00;;;;10299444;28;20192;-77
2021/10/23 03:30:15;;;;;;;34.20;22.20;;;;;7.20;102010.00;;;;10299037;28;20192;-77
2021/10/23 03:35:16;;;;;;;33.30;20.57;;;;;7.00;102015.00;;;;10299927;28;20718;-78
2021/10/23 03:40:18;;;;;;;32.07;19.57;;;;;6.90;102007.00;;;;10299453;28;20212;-78
2021/10/23 03:45:20;;;;;;;30.60;19.97;;;;;6.80;102019.00;;;;10298876;28;20675;-78
2021/10/23 03:50:22;;;;;;;30.70;18.93;;;;;6.70;102013.00;;;;10305343;28;20192;-77
2021/10/23 03:55:25;;;;;;;33.43;19.20;;;;;6.60;102011.00;;;;10322269;28;20299;-77
2021/10/23 04:00:27;;;;;;;28.37;18.63;;;;;6.50;102008.00;;;;10290376;28;20239;-78
2021/10/23 04:05:29;;;;;;;26.30;17.93;;;;;6.40;102021.00;;;;10290504;28;20687;-78
2021/10/23 04:10:31;;;;;;;28.33;18.73;;;;;6.30;102037.00;;;;10305966;28;20211;-78
2021/10/23 04:15:33;;;;;;;28.20;19.33;;;;;6.20;102032.00;;;;10322206;28;20235;-78
2021/10/23 04:20:35;;;;;;;29.53;18.53;;;;;6.10;102041.00;;;;10289717;28;20279;-77
2021/10/23 04:25:37;;;;;;;30.60;19.30;;;;;6.00;102040.00;;;;10289995;28;20193;-78
2021/10/23 04:30:39;;;;;;;30.57;17.87;;;;;5.90;102055.00;;;;10289854;28;20219;-77
2021/10/23 04:35:41;;;;;;;28.77;17.70;;;;;5.80;102057.00;;;;10289279;28;20204;-77
2021/10/23 04:40:43;;;;;;;26.27;16.80;;;;;5.70;102060.00;;;;10305134;28;20212;-77
2021/10/23 04:45:45;;;;;;;27.57;17.63;;;;;5.60;102067.00;;;;10305288;28;20208;-77
2021/10/23 04:50:47;;;;;;;31.97;18.23;;;;;5.60;102061.00;;;;10304909;28;20195;-78
2021/10/23 04:55:49;;;;;;;35.90;19.43;;;;;5.60;102065.00;;;;10304933;28;20220;-77
2021/10/23 05:00:51;;;;;;;33.50;17.77;;;;;5.50;102063.00;;;;10287609;28;20271;-77
2021/10/23 05:05:53;;;;;;;31.87;18.70;;;;;5.50;102058.00;;;;10280232;28;20200;-78
2021/10/23 05:10:56;;;;;;;37.57;21.40;;;;;5.50;102068.00;;;;10264060;28;20848;-78
2021/10/23 05:15:58;;;;;;;37.73;21.17;;;;;5.50;102057.00;;;;10280161;28;20189;-78
2021/10/23 05:21:00;;;;;;;36.33;21.40;;;;;5.50;102053.00;;;;10264031;28;20213;-78
2021/10/23 05:26:02;;;;;;;35.07;20.07;;;;;5.40;102054.00;;;;10263729;28;20200;-78
2021/10/23 05:31:04;;;;;;;29.93;19.00;;;;;5.40;102063.00;;;;10271758;28;20199;-78
2021/10/23 05:36:06;;;;;;;35.57;20.23;;;;;5.40;102074.00;;;;10319312;28;20235;-78
2021/10/23 05:41:08;;;;;;;31.97;20.17;;;;;5.30;102087.00;;;;10303143;28;20204;-78
2021/10/23 05:46:10;;;;;;;35.40;20.70;;;;;5.20;102078.00;;;;10302440;28;20201;-77
2021/10/23 05:51:12;;;;;;;34.23;20.13;;;;;5.10;102087.00;;;;10302427;28;20219;-77
2021/10/23 05:56:14;;;;;;;36.57;21.90;;;;;5.10;102083.00;;;;10319050;28;20217;-78
2021/10/23 06:01:16;;;;;;;43.87;23.07;;;;;5.10;102082.00;;;;10302405;28;20204;-78
2021/10/23 06:06:18;;;;;;;39.10;22.57;;;;;5.10;102083.00;;;;10313509;28;20192;-78
2021/10/23 06:11:20;;;;;;;45.57;24.87;;;;;5.10;102099.00;;;;10326093;28;20196;-77
2021/10/23 06:16:22;;;;;;;48.90;26.30;;;;;5.20;102099.00;;;;10302756;28;20687;-78
2021/10/23 06:21:25;;;;;;;47.30;25.70;;;;;5.30;102102.00;;;;10333561;28;20680;-77
2021/10/23 06:26:28;;;;;;;55.47;26.80;;;;;5.40;102099.00;;;;10301551;28;20207;-77
2021/10/23 06:31:30;;;;;;;46.97;26.63;;;;;5.40;102111.00;;;;10301519;28;20246;-78
2021/10/23 06:36:32;;;;;;;53.10;26.73;;;;;5.60;102106.00;;;;10317285;28;20204;-78
2021/10/23 06:41:35;;;;;;;56.87;29.27;;;;;5.70;102117.00;;;;10285402;28;20259;-78
2021/10/23 06:46:43;;;;;;;53.40;30.23;;;;;6.00;102131.00;;;;10287327;28;20242;-78
2021/10/23 06:51:45;;;;;;;58.17;30.37;;;;;6.30;102133.00;;;;10300510;28;20195;-78
2021/10/23 06:56:47;;;;;;;59.90;31.20;;;;;6.60;102140.00;;;;10300076;28;20223;-79
2021/10/23 07:01:49;;;;;;;55.20;31.17;;;;;6.90;102142.00;;;;10316300;28;20209;-78
2021/10/23 07:06:51;;;;;;;58.67;31.40;;;;;7.10;102136.00;;;;10286403;28;20192;-77
2021/10/23 07:11:53;;;;;;;61.80;32.37;;;;;7.30;102150.00;;;;10285643;28;20196;-77
2021/10/23 07:16:55;;;;;;;56.73;31.17;;;;;7.50;102158.00;;;;10301192;28;20262;-78
2021/10/23 07:21:57;;;;;;;58.63;31.90;;;;;7.70;102174.00;;;;10281075;28;20212;-78
2021/10/23 07:26:59;;;;;;;64.77;31.53;;;;;7.90;102174.00;;;;10268509;28;20207;-78
2021/10/23 07:32:03;;;;;;;55.87;32.63;;;;;8.10;102178.00;;;;10284102;28;20188;-78
2021/10/23 07:37:05;;;;;;;54.30;32.33;;;;;8.40;102198.00;;;;10278288;28;20220;-78
2021/10/23 07:42:07;;;;;;;56.90;32.77;;;;;8.60;102191.00;;;;10307853;28;20208;-78
2021/10/23 07:47:12;;;;;;;56.97;32.53;;;;;8.80;102208.00;;;;10312606;28;20230;-78
2021/10/23 07:52:15;;;;;;;48.67;29.03;;;;;9.10;102205.00;;;;10317845;28;20193;-78
2021/10/23 07:57:17;;;;;;;56.83;31.07;;;;;9.30;102232.00;;;;10283047;28;20216;-78
2021/10/23 08:02:19;;;;;;;47.67;28.50;;;;;9.50;102230.00;;;;10290457;28;20240;-78
2021/10/23 08:07:21;;;;;;;49.63;27.73;;;;;9.70;102237.00;;;;10306183;28;20290;-78
2021/10/23 08:12:23;;;;;;;50.93;28.57;;;;;9.80;102241.00;;;;10311241;28;20294;-78
2021/10/23 08:17:25;;;;;;;44.80;27.23;;;;;9.90;102232.00;;;;10277082;28;20197;-78
2021/10/23 08:22:27;;;;;;;46.30;25.50;;;;;9.90;102240.00;;;;10265204;28;20221;-78
2021/10/23 08:27:33;;;;;;;46.87;25.67;;;;;10.00;102248.00;;;;10250225;28;20821;-78
2021/10/23 08:32:36;;;;;;;41.50;24.90;;;;;10.10;102245.00;;;;10316716;28;20195;-78
2021/10/23 08:37:38;;;;;;;44.83;24.73;;;;;10.30;102251.00;;;;10305031;28;20235;-78
2021/10/23 08:42:43;;;;;;;42.67;25.17;;;;;10.50;102256.00;;;;10284673;28;21517;-78
2021/10/23 08:47:47;;;;;;;43.70;24.77;;;;;10.80;102269.00;;;;10330287;28;20204;-78
2021/10/23 08:52:53;;;;;;;40.37;25.40;;;;;11.00;102291.00;;;;10300302;28;20224;-79
2021/10/23 08:57:55;;;;;;;39.90;23.97;;;;;11.10;102284.00;;;;10308839;28;20217;-78
2021/10/23 09:02:57;;;;;;;37.87;22.03;;;;;11.20;102289.00;;;;10304334;28;20799;-78
2021/10/23 09:07:59;;;;;;;36.60;22.63;;;;;11.40;102282.00;;;;10283915;28;20204;-79
2021/10/23 09:13:04;;;;;;;34.00;22.27;;;;;11.50;102277.00;;;;10281039;28;20259;-78
2021/10/23 09:18:08;;;;;;;33.77;21.57;;;;;11.60;102286.00;;;;10302586;28;20200;-78
2021/10/23 09:23:18;;;;;;;32.57;20.90;;;;;11.70;102284.00;;;;10301534;28;20212;-78
2021/10/23 09:28:31;;;;;;;34.23;20.37;;;;;11.80;102279.00;;;;10302247;28;20223;-78
2021/10/23 09:33:33;;;;;;;30.83;19.27;;;;;12.00;102288.00;;;;10302053;28;20283;-78
2021/10/23 09:38:35;;;;;;;28.03;19.07;;;;;12.10;102294.00;;;;10301283;28;20200;-78
2021/10/23 09:43:38;;;;;;;32.80;18.30;;;;;12.20;102303.00;;;;10284850;28;20212;-78
2021/10/23 09:48:43;;;;;;;23.30;15.90;;;;;12.40;102314.00;;;;10285510;28;20196;-79
2021/10/23 09:53:48;;;;;;;25.93;15.30;;;;;12.70;102313.00;;;;10276510;28;20211;-78
2021/10/23 09:59:02;;;;;;;21.07;14.17;;;;;12.90;102312.00;;;;10294042;28;20227;-79
2021/10/23 10:04:05;;;;;;;23.93;13.87;;;;;13.10;102317.00;;;;10304019;28;20951;-79
2021/10/23 10:09:10;;;;;;;22.70;13.60;;;;;13.30;102321.00;;;;10258964;28;20240;-79
2021/10/23 10:14:12;;;;;;;21.80;12.20;;;;;13.50;102322.00;;;;10258324;28;20235;-79
2021/10/23 10:19:16;;;;;;;21.27;12.10;;;;;13.70;102323.00;;;;10333119;28;20196;-79
2021/10/23 10:24:22;;;;;;;20.13;12.27;;;;;13.90;102335.00;;;;10274719;28;20228;-79
2021/10/23 10:29:38;;;;;;;13.30;10.37;;;;;14.20;102332.00;;;;10244537;28;20189;-79
2021/10/23 10:39:54;;;;;;;16.47;10.60;;;;;14.40;102324.00;;;;10280296;28;20192;-79
2021/10/23 10:45:31;;;;;;;17.57;10.57;;;;;14.60;102308.00;;;;10298721;28;20801;-79
2021/10/23 10:50:53;;;;;;;16.03;9.47;;;;;15.40;102312.00;;;;10297447;28;20196;-78
2021/10/23 10:56:15;;;;;;;15.63;9.63;;;;;15.80;102306.00;;;;10280785;28;20219;-78
2021/10/23 11:01:30;;;;;;;10.00;7.90;;;;;16.00;102315.00;;;;10297829;28;20217;-78
2021/10/23 11:06:39;;;;;;;12.52;7.95;;;;;16.10;102319.00;;;;10285187;28;20211;-78
2021/10/23 11:11:47;;;;;;;10.65;8.15;;;;;16.10;102313.00;;;;10282806;28;20262;-78
2021/10/23 11:22:04;;;;;;;12.25;7.35;;;;;16.20;102315.00;;;;10294469;28;20207;-78
2021/10/23 11:27:06;;;;;;;8.88;7.43;;;;;16.30;102299.00;;;;10295687;28;20223;-79
2021/10/23 11:32:13;;;;;;;12.68;8.05;;;;;16.20;102285.00;;;;10271554;28;20228;-78
2021/10/23 11:37:15;;;;;;;12.10;8.27;;;;;16.20;102283.00;;;;10312332;28;20200;-78
2021/10/23 11:42:20;;;;;;;13.73;7.90;;;;;16.50;102281.00;;;;10329979;28;20196;-78
2021/10/23 11:47:28;;;;;;;9.82;6.72;;;;;17.30;102284.00;;;;10293647;28;20236;-78
2021/10/23 11:52:34;;;;;;;9.85;6.28;;;;;17.40;102286.00;;;;10295308;28;20672;-78
2021/10/23 11:57:40;;;;;;;10.00;6.68;;;;;16.80;102281.00;;;;10297541;28;20224;-78
2021/10/23 12:02:56;;;;;;;9.75;6.53;;;;;16.00;102273.00;;;;10289750;28;20219;-78
2021/10/23 12:08:33;;;;;;;9.07;5.80;;;;;15.40;102264.00;;;;10304096;28;20199;-78
2021/10/23 12:14:09;;;;;;;10.75;6.32;;;;;16.20;102269.00;;;;10249217;28;20291;-78
2021/10/23 12:19:20;;;;;;;10.32;5.38;;;;;16.70;102267.00;;;;10282053;28;20599;-78
2021/10/23 12:24:43;;;;;;;11.95;5.60;;;;;16.80;102267.00;;;;10298907;28;20212;-78
2021/10/23 12:29:56;;;;;;;8.23;4.47;;;;;15.80;102270.00;;;;10301947;28;20204;-78
2021/10/23 12:35:00;;;;;;;11.10;5.38;;;;;16.30;102260.00;;;;10288393;28;20231;-78
2021/10/23 12:40:25;;;;;;;5.93;4.45;;;;;16.30;102253.00;;;;10304232;28;20663;-78
2021/10/23 12:45:30;;;;;;;8.80;4.28;;;;;16.00;102259.00;;;;10304048;28;20876;-78
2021/10/23 12:50:34;;;;;;;4.90;3.72;;;;;15.80;102253.00;;;;10263761;28;20609;-78
2021/10/23 12:55:37;;;;;;;5.00;3.78;;;;;15.50;102243.00;;;;10281932;28;20222;-78
2021/10/23 13:00:42;;;;;;;8.23;4.65;;;;;15.50;102249.00;;;;10285007;28;20200;-78
2021/10/23 13:05:44;;;;;;;7.82;3.88;;;;;15.50;102236.00;;;;10283438;28;20687;-78
2021/10/23 13:10:46;;;;;;;6.22;3.67;;;;;15.30;102229.00;;;;10339664;28;20220;-78
2021/10/23 13:15:48;;;;;;;5.60;3.50;;;;;15.40;102218.00;;;;10294320;28;20244;-78
2021/10/23 13:20:50;;;;;;;7.88;3.30;;;;;15.40;102218.00;;;;10283342;28;20317;-77
2021/10/23 13:25:51;;;;;;;4.82;3.10;;;;;15.30;102211.00;;;;10284732;28;20216;-78
2021/10/23 13:30:53;;;;;;;6.27;3.30;;;;;15.10;102203.00;;;;10286634;28;20636;-77
2021/10/23 13:35:56;;;;;;;6.17;2.77;;;;;15.20;102199.00;;;;10299508;28;20196;-77
2021/10/23 13:40:58;;;;;;;3.23;2.33;;;;;15.30;102201.00;;;;10273905;28;20204;-78
2021/10/23 13:46:00;;;;;;;4.75;2.80;;;;;15.30;102208.00;;;;10242747;28;20961;-78
2021/10/23 13:51:03;;;;;;;5.10;3.00;;;;;15.30;102199.00;;;;10308303;28;20208;-78
2021/10/23 13:56:05;;;;;;;5.45;2.00;;;;;15.30;102201.00;;;;10267007;28;20252;-78
2021/10/23 14:01:07;;;;;;;5.60;2.60;;;;;15.20;102199.00;;;;10282942;28;20295;-78
2021/10/23 14:06:09;;;;;;;4.73;2.70;;;;;15.10;102204.00;;;;10296495;28;20200;-78
2021/10/23 14:11:11;;;;;;;11.17;3.47;;;;;15.10;102197.00;;;;10314181;28;20196;-77
2021/10/23 14:16:13;;;;;;;14.60;2.60;;;;;15.10;102196.00;;;;10282288;28;20564;-78
2021/10/23 14:21:15;;;;;;;12.43;3.03;;;;;15.00;102197.00;;;;10314452;28;20239;-78
2021/10/23 14:26:18;;;;;;;3.77;1.70;;;;;14.90;102202.00;;;;10293760;28;20208;-78
2021/10/23 14:31:21;;;;;;;10.40;3.20;;;;;14.70;102201.00;;;;10297509;28;20199;-79
2021/10/23 14:36:23;;;;;;;5.53;1.90;;;;;14.60;102191.00;;;;10296476;28;20288;-78
2021/10/23 14:41:25;;;;;;;4.47;1.80;;;;;14.60;102189.00;;;;10265518;28;20255;-78
2021/10/23 14:46:27;;;;;;;6.13;2.60;;;;;14.60;102189.00;;;;10295818;28;20203;-78
2021/10/23 14:51:29;;;;;;;11.83;4.07;;;;;15.10;102172.00;;;;10297320;28;20696;-78
2021/10/23 14:56:31;;;;;;;7.23;3.30;;;;;15.60;102195.00;;;;10280843;28;20208;-78
2021/10/23 15:01:33;;;;;;;6.83;2.90;;;;;15.80;102185.00;;;;10280510;28;20950;-78
2021/10/23 15:06:36;;;;;;;5.63;2.73;;;;;15.50;102195.00;;;;10296947;28;20191;-77
2021/10/23 15:11:45;;;;;;;8.90;3.90;;;;;15.30;102203.00;;;;10303854;28;20204;-79
2021/10/23 15:16:53;;;;;;;8.53;3.63;;;;;15.10;102202.00;;;;10255645;28;20203;-78
2021/10/23 15:22:03;;;;;;;7.10;4.17;;;;;15.00;102191.00;;;;10307671;28;20675;-77
2021/10/23 15:27:13;;;;;;;8.77;4.30;;;;;14.70;102197.00;;;;10303449;28;20200;-78
2021/10/23 15:32:32;;;;;;;9.33;4.60;;;;;14.30;102188.00;;;;10301366;28;20184;-78
2021/10/23 15:37:44;;;;;;;9.87;4.77;;;;;13.90;102189.00;;;;10297231;28;20196;-78
2021/10/23 15:42:47;;;;;;;8.90;3.47;;;;;13.70;102189.00;;;;10325971;28;20212;-78
2021/10/23 15:47:50;;;;;;;9.37;4.03;;;;;13.50;102185.00;;;;10303981;28;20200;-78
2021/10/23 15:52:52;;;;;;;6.07;3.70;;;;;13.20;102187.00;;;;10301519;28;20560;-78
2021/10/23 15:57:54;;;;;;;10.10;4.90;;;;;13.00;102184.00;;;;10293703;28;20215;-79
2021/10/23 16:02:56;;;;;;;8.40;5.00;;;;;12.80;102177.00;;;;10270578;28;20935;-78
2021/10/23 16:08:03;;;;;;;11.40;4.73;;;;;12.50;102178.00;;;;10301931;28;20196;-78
2021/10/23 16:13:08;;;;;;;8.80;3.90;;;;;12.30;102177.00;;;;10287682;28;20191;-78
2021/10/23 16:18:11;;;;;;;10.40;4.40;;;;;12.10;102181.00;;;;10286769;28;20228;-78
2021/10/23 16:23:13;;;;;;;10.67;4.97;;;;;11.90;102179.00;;;;10302261;28;20239;-77
2021/10/23 16:28:15;;;;;;;10.17;4.90;;;;;11.70;102181.00;;;;10285802;28;20681;-78
2021/10/23 16:33:17;;;;;;;8.70;4.80;;;;;11.60;102182.00;;;;10304595;28;20188;-78
2021/10/23 16:38:21;;;;;;;9.93;4.77;;;;;11.40;102185.00;;;;10308850;28;20223;-77
2021/10/23 16:43:24;;;;;;;9.60;5.30;;;;;11.20;102183.00;;;;10287643;28;20212;-78
2021/10/23 16:48:31;;;;;;;13.93;5.63;;;;;11.20;102179.00;;;;10303514;28;20208;-78
2021/10/23 16:53:34;;;;;;;10.00;4.67;;;;;11.20;102176.00;;;;10295007;28;20207;-78
2021/10/23 16:58:37;;;;;;;8.90;5.50;;;;;11.10;102177.00;;;;10511630;23;20695;-80
2021/10/23 17:03:39;;;;;;;9.27;5.47;;;;;11.00;102175.00;;;;10381459;28;20226;-79
2021/10/23 17:08:41;;;;;;;11.40;5.50;;;;;11.00;102168.00;;;;10460833;23;20625;-79
2021/10/23 17:13:43;;;;;;;8.67;5.47;;;;;11.00;102172.00;;;;10369506;28;20209;-79
2021/10/23 17:18:46;;;;;;;11.07;6.73;;;;;11.00;102172.00;;;;10376288;28;20205;-78
2021/10/23 17:23:48;;;;;;;15.10;8.17;;;;;10.90;102180.00;;;;10394156;28;20256;-78
2021/10/23 17:28:51;;;;;;;12.80;6.80;;;;;10.80;102174.00;;;;10425278;28;20570;-78
2021/10/23 17:33:53;;;;;;;15.20;8.20;;;;;10.80;102187.00;;;;10372637;28;20202;-78
2021/10/23 17:38:56;;;;;;;19.27;10.00;;;;;10.70;102186.00;;;;10391310;28;20669;-78
2021/10/23 17:43:58;;;;;;;15.27;9.70;;;;;10.50;102188.00;;;;10374629;28;20227;-78
2021/10/23 17:49:05;;;;;;;15.93;9.40;;;;;10.40;102190.00;;;;10381594;28;20199;-78
2021/10/23 17:54:10;;;;;;;12.33;7.63;;;;;10.30;102190.00;;;;10371618;28;20241;-78
2021/10/23 17:59:14;;;;;;;17.33;10.83;;;;;10.30;102184.00;;;;10364298;28;20209;-78
2021/10/23 18:04:17;;;;;;;23.17;10.33;;;;;10.20;102186.00;;;;10394678;28;20222;-78
2021/10/23 18:09:19;;;;;;;11.30;7.37;;;;;10.00;102181.00;;;;10391557;28;20218;-78
2021/10/23 18:14:22;;;;;;;12.97;6.97;;;;;10.00;102185.00;;;;10440697;28;20194;-78
2021/10/23 18:19:24;;;;;;;8.43;5.40;;;;;9.90;102187.00;;;;10412302;28;20194;-79
2021/10/23 18:24:29;;;;;;;8.73;5.47;;;;;9.90;102189.00;;;;10417054;28;20225;-79
2021/10/23 18:29:31;;;;;;;8.70;5.90;;;;;9.90;102189.00;;;;10410469;28;20797;-79
2021/10/23 18:34:33;;;;;;;9.13;6.87;;;;;9.90;102192.00;;;;10427265;28;20202;-79
2021/10/23 18:39:36;;;;;;;9.03;6.20;;;;;9.80;102190.00;;;;10462409;28;20208;-79
2021/10/23 18:44:42;;;;;;;9.53;5.53;;;;;9.80;102184.00;;;;10439341;28;20221;-78
2021/10/23 18:49:47;;;;;;;7.77;6.07;;;;;9.80;102186.00;;;;10421063;28;20222;-78
2021/10/23 18:54:48;;;;;;;9.50;7.43;;;;;9.70;102183.00;;;;10431563;28;20206;-78
2021/10/23 18:59:50;;;;;;;8.00;6.10;;;;;9.70;102183.00;;;;10421187;28;20201;-78
2021/10/23 19:04:52;;;;;;;8.77;6.27;;;;;9.80;102180.00;;;;10451228;28;20271;-78
2021/10/23 19:09:58;;;;;;;6.97;5.40;;;;;9.80;102174.00;;;;10420856;28;20635;-78
2021/10/23 19:15:02;;;;;;;9.83;5.90;;;;;9.80;102174.00;;;;10438836;28;20216;-78
2021/10/23 19:20:06;;;;;;;9.10;5.90;;;;;9.90;102172.00;;;;10447164;28;20205;-79
2021/10/23 19:25:12;;;;;;;7.90;5.20;;;;;10.10;102176.00;;;;10461032;28;20294;-79
2021/10/23 19:30:26;;;;;;;7.73;5.73;;;;;10.40;102171.00;;;;10432379;28;20198;-79
2021/10/23 19:35:49;;;;;;;10.77;5.97;;;;;10.50;102177.00;;;;10436569;28;20210;-79
2021/10/23 19:40:54;;;;;;;8.77;4.97;;;;;10.60;102174.00;;;;10457944;28;20283;-79
2021/10/23 19:46:06;;;;;;;7.20;4.70;;;;;10.60;102183.00;;;;10423506;28;20821;-79
2021/10/23 19:51:10;;;;;;;10.80;5.00;;;;;10.60;102188.00;;;;10468356;28;20196;-79
2021/10/23 19:56:12;;;;;;;6.90;4.47;;;;;10.60;102189.00;;;;10452247;28;20193;-80
2021/10/23 20:01:14;;;;;;;9.40;5.23;;;;;10.60;102197.00;;;;10444601;28;20209;-80
2021/10/23 20:06:16;;;;;;;17.40;9.90;;;;;10.70;102192.00;;;;10432309;28;20279;-80
2021/10/23 20:11:18;;;;;;;11.27;5.67;;;;;10.60;102195.00;;;;10433548;28;20579;-80
2021/10/23 20:16:20;;;;;;;7.83;5.13;;;;;10.60;102191.00;;;;10449606;28;20619;-79
2021/10/23 20:21:22;;;;;;;12.93;7.33;;;;;10.60;102197.00;;;;10456175;28;20288;-79
2021/10/23 20:26:24;;;;;;;5.87;5.00;;;;;10.50;102201.00;;;;10434572;28;20294;-79
2021/10/23 20:31:29;;;;;;;8.53;4.33;;;;;10.40;102205.00;;;;10452177;28;20321;-79
2021/10/23 20:36:32;;;;;;;7.97;5.17;;;;;10.40;102192.00;;;;10433941;28;20237;-80
2021/10/23 20:41:36;;;;;;;8.03;5.70;;;;;10.30;102196.00;;;;10425044;28;20289;-81
2021/10/23 20:46:39;;;;;;;10.10;5.70;;;;;10.30;102200.00;;;;10426770;28;20225;-79
2021/10/23 20:51:41;;;;;;;9.47;5.90;;;;;10.30;102198.00;;;;10427493;28;20218;-79
2021/10/23 20:56:43;;;;;;;10.37;5.90;;;;;10.30;102191.00;;;;10442652;28;20210;-81
2021/10/23 21:01:44;;;;;;;7.70;5.77;;;;;10.30;102200.00;;;;10432686;28;20621;-79
2021/10/23 21:06:47;;;;;;;8.87;5.93;;;;;10.20;102203.00;;;;10437139;28;20214;-79
2021/10/23 21:11:55;;;;;;;9.33;6.63;;;;;10.10;102191.00;;;;10451329;28;20245;-80
2021/10/23 21:16:57;;;;;;;9.87;5.90;;;;;10.00;102197.00;;;;10457422;28;20217;-79
2021/10/23 21:21:59;;;;;;;12.23;6.37;;;;;9.90;102201.00;;;;10441581;28;20201;-79
2021/10/23 21:27:03;;;;;;;13.00;6.20;;;;;9.90;102191.00;;;;10421811;28;20225;-79
2021/10/23 21:32:06;;;;;;;8.67;6.00;;;;;9.70;102191.00;;;;10417411;28;20300;-78
2021/10/23 21:37:07;;;;;;;8.03;6.00;;;;;9.40;102191.00;;;;10443950;28;20193;-79
2021/10/23 21:42:09;;;;;;;10.43;6.60;;;;;9.20;102183.00;;;;10448143;28;20196;-79
2021/10/23 21:47:11;;;;;;;8.53;7.10;;;;;9.00;102178.00;;;;10429800;28;20256;-80
2021/10/23 21:52:13;;;;;;;10.43;6.40;;;;;8.90;102183.00;;;;10446955;28;20217;-79
2021/10/23 21:57:15;;;;;;;8.73;6.43;;;;;8.70;102169.00;;;;10439739;28;20831;-80
2021/10/23 22:02:17;;;;;;;8.87;6.30;;;;;8.50;102169.00;;;;10438600;28;20247;-79
2021/10/23 22:07:19;;;;;;;11.30;8.17;;;;;8.40;102161.00;;;;10454325;28;20572;-79
2021/10/23 22:12:21;;;;;;;7.80;6.60;;;;;8.30;102160.00;;;;10438173;28;20266;-78
2021/10/23 22:17:23;;;;;;;8.77;7.00;;;;;8.20;102155.00;;;;10406894;28;20205;-78
2021/10/23 22:22:27;;;;;;;13.70;7.80;;;;;8.20;102153.00;;;;10444176;28;20201;-79
2021/10/23 22:27:29;;;;;;;13.13;7.57;;;;;8.20;102156.00;;;;10420859;28;20205;-78
2021/10/23 22:32:31;;;;;;;12.67;7.10;;;;;8.30;102158.00;;;;10442504;28;20189;-78
2021/10/23 22:37:33;;;;;;;12.20;7.53;;;;;8.30;102152.00;;;;10420106;28;20201;-79
2021/10/23 22:42:35;;;;;;;10.60;7.00;;;;;8.30;102160.00;;;;10398457;28;20202;-78
2021/10/23 22:47:37;;;;;;;9.73;7.37;;;;;8.20;102156.00;;;;10418214;28;20611;-78
2021/10/23 22:52:39;;;;;;;9.87;6.97;;;;;8.20;102156.00;;;;10446474;28;20205;-78
2021/10/23 22:57:41;;;;;;;8.90;6.03;;;;;8.20;102151.00;;;;10439788;28;20248;-78
2021/10/23 23:02:44;;;;;;;8.50;6.37;;;;;8.20;102152.00;;;;10454798;28;20193;-79
2021/10/23 23:07:47;;;;;;;7.57;5.90;;;;;8.20;102152.00;;;;10438540;28;20425;-78
2021/10/23 23:12:48;;;;;;;7.67;6.27;;;;;8.20;102155.00;;;;10440318;28;20213;-79
2021/10/23 23:17:50;;;;;;;8.57;5.73;;;;;8.10;102150.00;;;;10457617;28;20262;-78
2021/10/23 23:22:52;;;;;;;10.30;5.67;;;;;8.10;102145.00;;;;10436479;28;20220;-79
2021/10/23 23:27:54;;;;;;;8.27;6.00;;;;;8.00;102147.00;;;;10447315;28;20223;-78
2021/10/23 23:32:56;;;;;;;8.77;5.60;;;;;7.90;102140.00;;;;10455599;28;20208;-78
2021/10/23 23:37:58;;;;;;;6.90;5.90;;;;;7.90;102142.00;;;;10475749;28;20197;-79
2021/10/23 23:43:00;;;;;;;11.50;5.73;;;;;7.80;102152.00;;;;10463073;28;20213;-78
2021/10/23 23:48:03;;;;;;;11.50;5.70;;;;;7.70;102139.00;;;;10420574;28;20293;-78
2021/10/23 23:53:05;;;;;;;9.07;6.87;;;;;7.60;102137.00;;;;10417486;28;20210;-78
2021/10/23 23:58:06;;;;;;;10.17;6.83;;;;;7.50;102135.00;;;;10406771;28;20256;-78
